Impacts METAR Board INFO
IDs:

KDEN - Denver Intl, CO, US

Updated at: 2031 UTC 18 Dec 2017
Potential Impact None Slight Moderate High
Time18/08Z 18/09Z 18/10Z 18/11Z 18/12Z 18/13Z 18/14Z 18/15Z 18/16Z 18/17Z 18/18Z 18/19Z 18/20Z
VIS9 8 8 10 10 10 10 10 10 10 10 10 10
CIG-- -- -- -- -- -- -- -- -- 220 220 220 220
CoverCLRCLRCLRCLRCLRFEWSCTSCTSCTBKNBKNBKNBKN
FltCatVFRVFRVFRVFRVFRVFRVFRVFRVFRVFRVFRVFRVFR
WX--------------------------
WDir300240230230270290200200260190260020
WSpd5 7 5 5 7 5 10 14 7 7 5 0 6
WGst-- -- -- -- -- -- -- -- -- -- -- -- --
Raw hourly METARs
KDEN 180753Z 30005KT 9SM CLR M03/M07 A2995 RMK AO2 SLP151 T10331072 $
KDEN 180853Z 24007KT 8SM CLR M06/M08 A2997 RMK AO2 SLP162 T10561083 53009 $
KDEN 180953Z 23005KT 8SM CLR M06/M08 A2997 RMK AO2 SLP158 T10561083 $
KDEN 181053Z 23005KT 10SM CLR M06/M09 A2996 RMK AO2 SLP160 T10611094 $
KDEN 181153Z 27007KT 10SM CLR M05/M10 A2994 RMK AO2 SLP159 T10501100 11028 21072 58007 $
KDEN 181253Z 29005KT 10SM FEW220 M06/M11 A2995 RMK AO2 SLP166 T10561111 $
KDEN 181353Z 20010KT 10SM SCT220 M07/M12 A2994 RMK AO2 SLP172 T10721122
KDEN 181453Z 20014KT 10SM FEW140 SCT220 02/M11 A2994 RMK AO2 SLP153 T00171106 58000
KDEN 181553Z 26007KT 10SM FEW140 SCT220 05/M11 A2996 RMK AO2 SLP152 T00501106
KDEN 181653Z 19007KT 10SM FEW150 BKN220 08/M11 A2995 RMK AO2 SLP144 T00781111
KDEN 181753Z 26005KT 10SM FEW150 BKN220 12/M12 A2995 RMK AO2 SLP133 T01171122 10117 21078 50002
KDEN 181853Z 00000KT 10SM FEW150 BKN220 12/M12 A2993 RMK AO2 SLP128 T01171122
KDEN 181953Z 02006KT 10SM FEW100 FEW140 BKN220 11/M04 A2992 RMK AO2 SLP121 T01061044